createdAt,value
2022-12-14T00:02:05.173Z,76.08
2022-12-14T00:04:34.729Z,75.99
2022-12-14T00:07:03.819Z,75.66
2022-12-14T00:09:33.190Z,75.33
2022-12-14T00:12:02.242Z,75.58
2022-12-14T00:14:33.121Z,75.44
2022-12-14T00:17:02.172Z,75.79
2022-12-14T00:19:31.708Z,75.86
2022-12-14T00:22:00.840Z,75.14
2022-12-14T00:24:30.873Z,75.21
2022-12-14T00:26:59.953Z,75.65
2022-12-14T00:29:29.559Z,75.67
2022-12-14T00:32:00.035Z,75.59
2022-12-14T00:34:29.431Z,75.12
2022-12-14T00:36:58.747Z,75.28
2022-12-14T00:39:28.084Z,75.61
2022-12-14T00:41:58.204Z,75.54
2022-12-14T00:44:27.774Z,75.81
2022-12-14T00:46:56.838Z,75.35
2022-12-14T00:49:28.070Z,75.41
2022-12-14T00:51:57.161Z,75.45
2022-12-14T00:54:27.041Z,75.28
2022-12-14T00:56:56.374Z,75.14
2022-12-14T00:59:27.434Z,75.71
2022-12-14T01:01:58.951Z,75.69
2022-12-14T01:04:30.243Z,75.48
2022-12-14T01:06:59.364Z,74.89
2022-12-14T01:09:29.468Z,75.33
2022-12-14T01:11:58.635Z,75.02
2022-12-14T01:14:27.978Z,74.77
2022-12-14T01:16:57.015Z,75.36
2022-12-14T01:19:26.362Z,74.55
2022-12-14T01:21:56.816Z,75.31
2022-12-14T01:24:26.324Z,74.72
2022-12-14T01:26:55.360Z,74.74
2022-12-14T01:29:25.094Z,74.56
2022-12-14T01:31:54.309Z,74.65
2022-12-14T01:34:23.793Z,74.74
2022-12-14T01:36:52.873Z,74.46
2022-12-14T01:39:23.730Z,75.13
2022-12-14T01:41:53.832Z,74.74
2022-12-14T01:44:53.743Z,75.00
2022-12-14T01:47:30.467Z,74.27
2022-12-14T01:50:06.989Z,74.29
2022-12-14T01:52:41.312Z,74.85
2022-12-14T01:55:17.891Z,74.64
2022-12-14T01:57:52.692Z,74.73
2022-12-14T02:00:23.347Z,74.46
2022-12-14T02:02:59.005Z,74.31
2022-12-14T02:05:29.535Z,74.53
2022-12-14T02:07:59.020Z,74.09
2022-12-14T02:10:32.648Z,74.42
2022-12-14T02:13:07.032Z,74.32
2022-12-14T02:15:37.075Z,74.70
2022-12-14T02:18:10.233Z,74.49
2022-12-14T02:20:50.326Z,74.07
2022-12-14T02:23:52.259Z,74.19
2022-12-14T02:27:04.749Z,74.22
2022-12-14T02:30:04.942Z,74.24
2022-12-14T02:33:09.030Z,74.04
2022-12-14T02:35:47.727Z,74.24
2022-12-14T02:38:30.067Z,74.47
2022-12-14T02:41:07.351Z,74.18
2022-12-14T02:43:47.412Z,74.07
2022-12-14T02:46:26.245Z,73.83
2022-12-14T02:49:03.517Z,74.25
2022-12-14T02:51:43.568Z,74.63
2022-12-14T02:54:19.521Z,74.16
2022-12-14T02:56:52.812Z,73.93
2022-12-14T02:59:25.231Z,73.70
2022-12-14T03:01:57.079Z,73.57
2022-12-14T03:04:26.645Z,74.12
2022-12-14T03:07:02.692Z,74.44
2022-12-14T03:09:33.277Z,73.84
2022-12-14T03:12:04.796Z,74.63
2022-12-14T03:14:40.016Z,73.67
2022-12-14T03:17:19.416Z,74.19
2022-12-14T03:19:54.069Z,74.00
2022-12-14T03:22:28.553Z,73.81
2022-12-14T03:25:01.699Z,73.41
2022-12-14T03:27:34.174Z,73.53
2022-12-14T03:30:09.642Z,73.55
2022-12-14T03:32:45.500Z,74.06
2022-12-14T03:35:19.435Z,73.81
2022-12-14T03:37:55.718Z,73.74
2022-12-14T03:40:32.398Z,74.24
2022-12-14T03:43:07.440Z,74.10
2022-12-14T03:45:45.588Z,73.92
2022-12-14T03:48:26.068Z,73.91
2022-12-14T03:51:03.968Z,73.85
2022-12-14T03:53:39.804Z,73.94
2022-12-14T03:56:13.984Z,73.91
2022-12-14T03:58:57.149Z,73.49
2022-12-14T04:01:36.968Z,72.93
2022-12-14T04:04:13.199Z,73.60
2022-12-14T04:06:47.744Z,73.57
2022-12-14T04:09:28.988Z,73.90
2022-12-14T04:12:22.888Z,74.14
2022-12-14T04:15:14.896Z,73.58
2022-12-14T04:18:04.332Z,73.28
2022-12-14T04:20:42.182Z,73.56
2022-12-14T04:23:15.929Z,74.19
2022-12-14T04:26:05.458Z,73.95
2022-12-14T04:28:58.746Z,73.21
2022-12-14T04:31:30.804Z,73.52
2022-12-14T04:34:04.812Z,73.05
2022-12-14T04:36:42.851Z,73.21
2022-12-14T04:39:17.636Z,73.34
2022-12-14T04:41:51.411Z,73.02
2022-12-14T04:44:27.608Z,73.41
2022-12-14T04:46:59.003Z,73.43
2022-12-14T04:49:34.734Z,73.49
2022-12-14T04:52:12.650Z,72.57
2022-12-14T04:54:47.916Z,72.76
2022-12-14T04:57:24.526Z,73.17
2022-12-14T04:59:54.319Z,73.67
2022-12-14T05:02:35.220Z,73.14
2022-12-14T05:05:10.308Z,73.49
2022-12-14T05:07:48.768Z,72.68
2022-12-14T05:10:21.666Z,73.44
2022-12-14T05:12:57.513Z,72.85
2022-12-14T05:15:33.109Z,72.86
2022-12-14T05:18:04.539Z,73.42
2022-12-14T05:20:34.162Z,72.78
2022-12-14T05:23:04.671Z,73.26
2022-12-14T05:25:34.053Z,73.06
2022-12-14T05:28:03.208Z,72.91
2022-12-14T05:30:33.191Z,73.42
2022-12-14T05:33:02.472Z,72.99
2022-12-14T05:35:31.809Z,72.64
2022-12-14T05:38:00.919Z,72.58
2022-12-14T05:40:31.599Z,72.54
2022-12-14T05:43:06.341Z,73.05
2022-12-14T05:45:35.806Z,72.85
2022-12-14T05:48:04.975Z,72.93
2022-12-14T05:50:34.398Z,72.52
2022-12-14T05:53:03.362Z,72.97
2022-12-14T05:55:34.104Z,72.66
2022-12-14T05:58:03.218Z,72.82
2022-12-14T06:00:32.526Z,73.16
2022-12-14T06:03:01.695Z,72.33
2022-12-14T06:05:31.626Z,72.32
2022-12-14T06:08:00.660Z,72.69
2022-12-14T06:10:30.027Z,72.63
2022-12-14T06:13:00.504Z,72.96
2022-12-14T06:15:33.905Z,73.04
2022-12-14T06:18:03.386Z,72.78
2022-12-14T06:20:32.738Z,72.89
2022-12-14T06:23:02.126Z,72.59
2022-12-14T06:25:31.565Z,72.65
2022-12-14T06:28:02.034Z,73.11
2022-12-14T06:30:31.361Z,73.14
2022-12-14T06:33:00.356Z,72.42
2022-12-14T06:35:29.880Z,72.82
2022-12-14T06:37:58.898Z,71.92
2022-12-14T06:40:28.490Z,71.91
2022-12-14T06:42:57.611Z,72.24
2022-12-14T06:45:29.401Z,72.49
2022-12-14T06:47:59.074Z,72.00
2022-12-14T06:50:28.926Z,72.73
2022-12-14T06:52:58.055Z,72.84
2022-12-14T06:55:27.925Z,72.11
2022-12-14T06:57:57.332Z,72.29
2022-12-14T07:00:28.326Z,72.75
2022-12-14T07:02:57.507Z,72.08
2022-12-14T07:05:26.966Z,72.41
2022-12-14T07:07:56.616Z,72.39
2022-12-14T07:10:26.061Z,72.83
2022-12-14T07:12:55.246Z,72.64
2022-12-14T07:15:27.221Z,72.40
2022-12-14T07:17:56.328Z,72.17
2022-12-14T07:20:25.625Z,72.03
2022-12-14T07:22:54.681Z,71.60
2022-12-14T07:25:23.991Z,72.21
2022-12-14T07:27:53.505Z,72.04
2022-12-14T07:30:22.880Z,71.38
2022-12-14T07:32:53.327Z,72.50
2022-12-14T07:35:22.787Z,72.43
2022-12-14T07:37:51.859Z,72.46
2022-12-14T07:40:21.503Z,72.15
2022-12-14T07:42:50.783Z,72.70
2022-12-14T07:45:21.141Z,71.84
2022-12-14T07:47:50.211Z,72.14
2022-12-14T07:50:20.958Z,72.34
2022-12-14T07:52:50.152Z,72.47
2022-12-14T07:55:19.803Z,71.83
2022-12-14T07:57:49.187Z,71.85
2022-12-14T08:00:19.040Z,72.65
2022-12-14T08:02:48.087Z,72.22
2022-12-14T08:05:19.111Z,72.11
2022-12-14T08:07:48.245Z,72.41
2022-12-14T08:10:17.750Z,72.33
2022-12-14T08:12:47.501Z,71.60
2022-12-14T08:15:17.047Z,71.90
2022-12-14T08:17:46.040Z,72.14
2022-12-14T08:20:16.752Z,72.01
2022-12-14T08:22:47.223Z,72.14
2022-12-14T08:25:16.622Z,72.59
2022-12-14T08:27:46.339Z,71.80
2022-12-14T08:30:15.939Z,72.33
2022-12-14T08:32:44.973Z,72.41
2022-12-14T08:35:14.387Z,72.14
2022-12-14T08:37:47.436Z,72.22
2022-12-14T08:40:18.629Z,72.58
2022-12-14T08:42:50.581Z,72.13
2022-12-14T08:45:20.113Z,72.12
2022-12-14T08:47:49.797Z,71.65
2022-12-14T08:50:19.422Z,72.59
2022-12-14T08:52:49.186Z,72.10
2022-12-14T08:55:27.197Z,72.24
2022-12-14T08:57:58.986Z,72.09
2022-12-14T09:00:28.425Z,72.32
2022-12-14T09:02:57.733Z,72.00
2022-12-14T09:05:27.164Z,71.45
2022-12-14T09:07:56.563Z,71.58
2022-12-14T09:10:27.287Z,72.22
2022-12-14T09:12:56.377Z,71.49
2022-12-14T09:15:25.741Z,71.88
2022-12-14T09:17:54.836Z,71.75
2022-12-14T09:20:24.525Z,71.59
2022-12-14T09:22:54.096Z,71.27
2022-12-14T09:25:23.386Z,71.70
2022-12-14T09:27:53.904Z,71.75
2022-12-14T09:30:26.549Z,71.95
2022-12-14T09:32:56.184Z,71.15
2022-12-14T09:35:25.517Z,71.37
2022-12-14T09:37:54.558Z,71.28
2022-12-14T09:40:29.323Z,71.52
2022-12-14T09:43:05.067Z,70.88
2022-12-14T09:45:36.490Z,70.76
2022-12-14T09:48:15.747Z,70.23
2022-12-14T09:50:47.524Z,70.27
2022-12-14T09:53:18.727Z,71.00
2022-12-14T09:55:51.592Z,71.24
2022-12-14T09:58:24.247Z,70.65
2022-12-14T10:01:09.485Z,70.58
2022-12-14T10:03:56.456Z,70.21
2022-12-14T10:06:37.698Z,70.31
2022-12-14T10:09:17.802Z,70.49
2022-12-14T10:11:52.399Z,70.53
2022-12-14T10:14:36.296Z,70.55
2022-12-14T10:17:19.280Z,70.58
2022-12-14T10:19:55.253Z,70.10
2022-12-14T10:22:30.563Z,70.11
2022-12-14T10:25:06.713Z,70.88
2022-12-14T10:28:01.082Z,71.24
2022-12-14T10:30:27.628Z,71.17
2022-12-14T10:33:07.744Z,71.31
2022-12-14T10:35:45.950Z,71.96
2022-12-14T10:38:25.307Z,71.15
2022-12-14T10:40:58.011Z,71.56
2022-12-14T10:43:44.399Z,71.82
2022-12-14T10:46:27.952Z,71.53
2022-12-14T10:49:03.799Z,72.70
2022-12-14T10:51:38.337Z,72.59
2022-12-14T10:54:18.502Z,72.36
2022-12-14T10:56:50.024Z,72.97
2022-12-14T10:59:38.404Z,73.22
2022-12-14T11:02:17.123Z,73.21
2022-12-14T11:04:51.481Z,73.35
2022-12-14T11:07:22.168Z,73.71
2022-12-14T11:09:51.756Z,74.32
2022-12-14T11:12:24.238Z,73.51
2022-12-14T11:14:59.603Z,74.27
2022-12-14T11:17:36.248Z,74.33
2022-12-14T11:20:21.022Z,74.04
2022-12-14T11:22:52.577Z,73.53
2022-12-14T11:25:36.035Z,73.82
2022-12-14T11:28:20.366Z,74.18
2022-12-14T11:30:57.367Z,73.74
2022-12-14T11:33:32.109Z,74.19
2022-12-14T11:36:01.986Z,73.99
2022-12-14T11:38:33.306Z,74.36
2022-12-14T11:41:10.958Z,74.45
2022-12-14T11:43:41.233Z,73.88
2022-12-14T11:46:10.676Z,74.03
2022-12-14T11:48:50.731Z,73.99
2022-12-14T11:51:19.891Z,74.20
2022-12-14T11:54:03.908Z,74.20
2022-12-14T11:56:37.670Z,73.80
2022-12-14T11:59:06.975Z,74.42
2022-12-14T12:01:36.369Z,73.84
2022-12-14T12:04:13.207Z,73.40
2022-12-14T12:06:43.457Z,74.03
2022-12-14T12:09:31.876Z,74.06
2022-12-14T12:12:02.147Z,73.80
2022-12-14T12:14:35.059Z,73.80
2022-12-14T12:17:20.229Z,73.87
2022-12-14T12:19:53.314Z,74.18
2022-12-14T12:22:23.575Z,74.33
2022-12-14T12:25:24.377Z,74.28
2022-12-14T12:27:53.219Z,74.52
2022-12-14T12:30:28.731Z,73.83
2022-12-14T12:33:03.955Z,73.78
2022-12-14T12:35:40.659Z,74.17
2022-12-14T12:38:18.315Z,74.15
2022-12-14T12:40:59.295Z,74.29
2022-12-14T12:43:35.064Z,74.11
2022-12-14T12:46:13.456Z,74.06
2022-12-14T12:48:50.773Z,74.46
2022-12-14T12:51:23.816Z,74.21
2022-12-14T12:53:56.760Z,73.56
2022-12-14T12:56:30.336Z,74.42
2022-12-14T12:59:03.080Z,73.86
2022-12-14T13:04:36.181Z,73.82
2022-12-14T13:07:11.836Z,74.85
2022-12-14T13:09:45.560Z,74.14
2022-12-14T13:12:24.174Z,74.05
2022-12-14T13:14:56.046Z,74.65
2022-12-14T13:17:35.345Z,73.83
2022-12-14T13:20:08.086Z,73.96
2022-12-14T13:22:41.837Z,74.42
2022-12-14T13:25:23.686Z,74.50
2022-12-14T13:28:28.767Z,73.90
2022-12-14T13:31:15.793Z,74.09
2022-12-14T13:34:06.089Z,74.80
2022-12-14T13:36:48.064Z,74.01
2022-12-14T13:39:40.541Z,74.60
2022-12-14T13:42:20.149Z,74.23
2022-12-14T13:44:57.216Z,74.56
2022-12-14T13:47:31.337Z,74.47
2022-12-14T13:52:58.924Z,74.90
2022-12-14T13:55:34.102Z,74.49
2022-12-14T13:58:17.456Z,74.56
2022-12-14T14:01:01.283Z,74.69
2022-12-14T14:03:53.397Z,74.58
2022-12-14T14:06:36.807Z,74.86
2022-12-14T14:09:51.176Z,75.03
2022-12-14T14:12:41.784Z,74.94
2022-12-14T14:18:48.392Z,75.01
2022-12-14T14:21:38.847Z,74.93
2022-12-14T14:24:24.035Z,75.04
2022-12-14T14:27:12.035Z,74.87
2022-12-14T14:29:49.659Z,74.50
2022-12-14T14:32:38.372Z,74.95
2022-12-14T14:35:10.290Z,74.17
2022-12-14T14:37:42.039Z,74.79
2022-12-14T14:40:44.241Z,74.83
2022-12-14T14:43:27.479Z,74.83
2022-12-14T14:46:02.130Z,74.85
2022-12-14T14:48:36.440Z,75.23
2022-12-14T14:51:14.692Z,75.46
2022-12-14T14:53:44.420Z,75.13
2022-12-14T14:56:40.487Z,74.95
2022-12-14T14:59:50.722Z,75.02
2022-12-14T15:02:33.289Z,75.71
2022-12-14T15:05:33.309Z,75.34
2022-12-14T15:07:56.439Z,74.56
2022-12-14T15:10:32.141Z,74.85
2022-12-14T15:13:06.069Z,74.66
2022-12-14T15:15:41.239Z,74.99
2022-12-14T15:18:22.712Z,75.10
2022-12-14T15:20:57.949Z,75.41
2022-12-14T15:23:30.015Z,74.68
2022-12-14T15:26:04.524Z,74.87
2022-12-14T15:28:34.466Z,75.55
2022-12-14T15:31:04.878Z,75.14
2022-12-14T15:33:37.888Z,74.95
2022-12-14T15:36:12.589Z,75.46
2022-12-14T15:38:41.728Z,75.33
2022-12-14T15:41:17.850Z,75.91
2022-12-14T15:43:48.682Z,75.50
2022-12-14T15:46:20.171Z,75.11
2022-12-14T15:49:00.659Z,75.30
2022-12-14T15:51:34.282Z,75.51
2022-12-14T15:54:05.784Z,75.47
2022-12-14T15:56:37.985Z,75.88
2022-12-14T15:59:16.754Z,76.14
2022-12-14T16:01:54.801Z,76.02
2022-12-14T16:04:29.248Z,76.18
2022-12-14T16:07:08.625Z,75.21
2022-12-14T16:09:43.263Z,75.63
2022-12-14T16:12:21.145Z,76.05
2022-12-14T16:14:57.141Z,76.06
2022-12-14T16:17:32.508Z,75.24
2022-12-14T16:20:19.636Z,75.02
2022-12-14T16:23:04.509Z,75.74
2022-12-14T16:25:37.621Z,75.71
2022-12-14T16:28:29.846Z,75.86
2022-12-14T16:31:05.467Z,75.59
2022-12-14T16:33:37.828Z,75.78
2022-12-14T16:36:13.041Z,75.59
2022-12-14T16:38:56.661Z,75.97
2022-12-14T16:41:38.791Z,75.15
2022-12-14T16:44:12.644Z,75.10
2022-12-14T16:46:52.048Z,75.16
2022-12-14T16:49:32.423Z,75.25
2022-12-14T16:52:07.702Z,74.91
2022-12-14T16:54:39.178Z,74.71
2022-12-14T16:57:22.075Z,75.03
2022-12-14T16:59:59.248Z,74.12
2022-12-14T17:02:33.029Z,75.05
2022-12-14T17:05:06.564Z,74.89
2022-12-14T17:07:39.766Z,74.99
2022-12-14T17:10:16.842Z,74.59
2022-12-14T17:12:46.054Z,75.20
2022-12-14T17:15:16.628Z,74.96
2022-12-14T17:17:49.489Z,75.39
2022-12-14T17:20:26.288Z,75.18
2022-12-14T17:23:02.626Z,74.73
2022-12-14T17:25:35.989Z,75.13
2022-12-14T17:28:22.935Z,74.91
2022-12-14T17:30:57.047Z,74.61
2022-12-14T17:33:28.220Z,74.88
2022-12-14T17:35:58.227Z,74.51
2022-12-14T17:38:29.871Z,74.48
2022-12-14T17:40:59.604Z,74.87
2022-12-14T17:43:29.483Z,74.91
2022-12-14T17:46:03.299Z,75.07
2022-12-14T17:48:32.549Z,74.33
2022-12-14T17:51:02.852Z,74.49
2022-12-14T17:53:34.418Z,74.02
2022-12-14T17:56:05.301Z,74.05
2022-12-14T17:58:34.367Z,73.86
2022-12-14T18:01:04.626Z,74.51
2022-12-14T18:03:36.513Z,74.89
2022-12-14T18:06:06.654Z,74.49
2022-12-14T18:08:37.564Z,73.54
2022-12-14T18:11:13.310Z,73.71
2022-12-14T18:13:43.360Z,73.53
2022-12-14T18:16:14.509Z,73.97
2022-12-14T18:18:45.990Z,74.40
2022-12-14T18:21:18.912Z,74.33
2022-12-14T18:23:50.572Z,74.02
2022-12-14T18:26:21.233Z,74.07
2022-12-14T18:28:50.895Z,73.60
2022-12-14T18:31:24.833Z,73.85
2022-12-14T18:33:56.909Z,73.87
2022-12-14T18:36:26.532Z,74.25
2022-12-14T18:38:57.572Z,74.55
2022-12-14T18:41:29.632Z,73.96
2022-12-14T18:44:00.530Z,74.43
2022-12-14T18:46:30.231Z,73.87
2022-12-14T18:48:59.441Z,74.70
2022-12-14T18:51:28.842Z,74.34
2022-12-14T18:54:03.974Z,73.66
2022-12-14T18:56:34.348Z,73.34
2022-12-14T18:59:04.777Z,73.39
2022-12-14T19:01:36.882Z,73.93
2022-12-14T19:04:07.647Z,73.30
2022-12-14T19:06:45.430Z,74.34
2022-12-14T19:09:16.938Z,74.32
2022-12-14T19:11:47.471Z,74.13
2022-12-14T19:14:19.491Z,74.81
2022-12-14T19:16:48.968Z,74.47
2022-12-14T19:19:22.508Z,73.20
2022-12-14T19:21:53.649Z,74.17
2022-12-14T19:24:24.247Z,73.92
2022-12-14T19:26:54.021Z,73.45
2022-12-14T19:29:23.173Z,73.73
2022-12-14T19:31:54.421Z,74.37
2022-12-14T19:34:25.727Z,74.33
2022-12-14T19:36:55.395Z,74.24
2022-12-14T19:39:26.152Z,74.45
2022-12-14T19:41:56.943Z,74.21
2022-12-14T19:44:26.092Z,74.13
2022-12-14T19:46:56.739Z,73.96
2022-12-14T19:49:25.951Z,74.19
2022-12-14T19:51:55.572Z,73.82
2022-12-14T19:54:27.894Z,73.77
2022-12-14T19:56:57.825Z,73.30
2022-12-14T19:59:26.911Z,73.31
2022-12-14T20:01:57.629Z,73.53
2022-12-14T20:04:27.324Z,73.36
2022-12-14T20:06:56.981Z,73.23
2022-12-14T20:09:27.828Z,73.23
2022-12-14T20:11:58.056Z,72.99
2022-12-14T20:14:27.559Z,74.01
2022-12-14T20:16:57.227Z,74.16
2022-12-14T20:19:26.602Z,73.50
2022-12-14T20:21:55.952Z,73.51
2022-12-14T20:24:26.715Z,73.93
2022-12-14T20:26:56.180Z,73.56
2022-12-14T20:29:27.344Z,73.41
2022-12-14T20:31:56.876Z,73.38
2022-12-14T20:34:26.681Z,73.75
2022-12-14T20:36:56.048Z,73.62
2022-12-14T20:39:26.978Z,73.27
2022-12-14T20:41:56.460Z,73.07
2022-12-14T20:44:26.120Z,73.50
2022-12-14T20:46:55.640Z,73.08
2022-12-14T20:49:29.913Z,72.95
2022-12-14T20:52:00.023Z,72.75
2022-12-14T20:54:30.487Z,72.48
2022-12-14T20:57:01.376Z,72.71
2022-12-14T20:59:30.783Z,73.58
2022-12-14T21:02:00.244Z,73.11
2022-12-14T21:04:29.491Z,72.91
2022-12-14T21:06:59.238Z,72.65
2022-12-14T21:09:29.785Z,73.22
2022-12-14T21:12:16.196Z,73.83
2022-12-14T21:14:48.194Z,73.31
2022-12-14T21:17:18.269Z,72.80
2022-12-14T21:19:47.557Z,72.76
2022-12-14T21:22:19.150Z,72.49
2022-12-14T21:25:03.067Z,73.18
2022-12-14T21:27:36.295Z,73.54
2022-12-14T21:30:07.596Z,73.85
2022-12-14T21:32:39.470Z,73.88
2022-12-14T21:35:09.693Z,72.86
2022-12-14T21:37:39.777Z,72.71
2022-12-14T21:40:31.971Z,72.67
2022-12-14T21:43:00.788Z,73.45
2022-12-14T21:45:29.918Z,73.16
2022-12-14T21:47:59.628Z,73.80
2022-12-14T21:50:28.647Z,73.39
2022-12-14T21:52:57.971Z,72.86
2022-12-14T21:55:28.507Z,73.36
2022-12-14T21:58:15.313Z,73.06
2022-12-14T22:00:44.477Z,73.25
2022-12-14T22:03:14.148Z,72.71
2022-12-14T22:05:43.306Z,73.29
2022-12-14T22:08:12.641Z,73.52
2022-12-14T22:10:43.117Z,72.96
2022-12-14T22:13:12.589Z,72.63
2022-12-14T22:15:41.605Z,72.89
2022-12-14T22:18:11.360Z,71.97
2022-12-14T22:20:40.408Z,72.23
2022-12-14T22:23:09.830Z,72.32
2022-12-14T22:25:38.852Z,72.79
2022-12-14T22:28:09.777Z,72.76
2022-12-14T22:30:38.889Z,72.65
2022-12-14T22:33:08.232Z,72.50
2022-12-14T22:35:37.341Z,72.34
2022-12-14T22:38:06.684Z,72.39
2022-12-14T22:40:35.947Z,72.15
2022-12-14T22:43:05.427Z,72.08
2022-12-14T22:45:36.456Z,72.70
2022-12-14T22:48:06.137Z,72.25
2022-12-14T22:50:35.200Z,73.09
2022-12-14T22:53:04.565Z,73.09
2022-12-14T22:55:38.728Z,72.88
2022-12-14T22:58:12.095Z,72.43
2022-12-14T23:00:42.624Z,71.83
2022-12-14T23:03:12.836Z,72.11
2022-12-14T23:05:42.741Z,71.96
2022-12-14T23:08:12.074Z,72.13
2022-12-14T23:10:58.705Z,73.22
2022-12-14T23:13:45.433Z,72.70
2022-12-14T23:16:33.444Z,72.88
2022-12-14T23:19:20.103Z,71.69
2022-12-14T23:22:07.931Z,72.07
2022-12-14T23:24:54.870Z,71.96
2022-12-14T23:27:41.264Z,71.80
2022-12-14T23:30:29.722Z,71.77
2022-12-14T23:33:17.753Z,71.48
2022-12-14T23:36:04.327Z,71.26
2022-12-14T23:38:50.831Z,71.01
2022-12-14T23:41:37.611Z,71.44
2022-12-14T23:44:23.939Z,72.32
2022-12-14T23:47:10.818Z,72.61
2022-12-14T23:49:58.499Z,72.79
2022-12-14T23:52:44.975Z,72.68
2022-12-14T23:55:31.527Z,72.71
2022-12-14T23:58:18.240Z,73.06
